To NAV CANADA Home Page Login to a new session Search on AWWS site Feedback and Comments Disclaimer Vers la page française équivalente Tips FAQ What's new on the site To the Forecasts and Observations / NOTAM section To "File a Flight Plan" website Publications and other links Update of the User's profile FIC Telephone Numbers My Weather Data Folder Route Weather Data Regional Weather Data Local Weather Data To the Forecasts and Observations / NOTAM section
Request Generated 09/25/2016 at 07:07:00 UTC . Weather information available at that time is displayed.

METAR/TAF

VANCOUVER INTL/BC    (show WxCam)

METAR CYVR 250700Z 05008KT 15SM -RA FEW050 BKN068 OVC100 14/11 A3039
RMK SC2AC4AS2 SLP294=
METAR CYVR 250600Z VRB02KT 15SM -RA FEW050 BKN071 OVC100 14/11 A3040
RMK SC2AS5AS1 SLP297=
SPECI CYVR 250529Z 04003KT 300V050 15SM -RA FEW055 BKN074 OVC100
14/11 A3039 RMK SC2AS5AS1 SLP291=
METAR CYVR 250500Z 04006KT 15SM FEW055 BKN072 OVC100 14/12 A3038 RMK
SC2AS5AS1 SLP288=

TAF CYVR 250538Z 2506/2612 04005KT P6SM SCT050 BKN070 TEMPO 2506/2512
P6SM -RA
FM251200 06005KT P6SM BKN040 TEMPO 2512/2521 P6SM -RA
FM252100 28008KT P6SM SCT040
RMK NXT FCST BY 250900Z=
Your time UTC time
Weather data provided by Environment Canada and NAV CANADA